Главная страница
METAR-TAF:

METAR-TAF

Аэропорты :

Shingle Point, Юкон, Канада

широта: 68-57N, долгота: 137-13W, высота над уровнем моря: 56 м

Текущие метеонаблюдения

Эта сводка был подготовлена 1 час и 9 минут назад, в 03:00 UTC
Ветер 21 Узел от южный-юго-западный
Температура -9°C
Влажность 79%
Давление 1002 hPa
небольшая облачность на высоте 3000 фута
Отдельные облака на высоте 5000 фута
Рассеянная облачность на высоте 6500 фута

METAR: CYUA 230300Z AUTO 21021KT ////SM //// FEW030 SCT050 BKN065 M09/M12 A2960

Время: 20:09 (04:09 UTC)


TAF: отсутствует

Метеонаблюдения и прогнозы для более 4000 аэропортов (сводки METAR и TAF).

Имеющиеся станции представлены на карте желтыми и красными точками.

Чтобы увидеть название станции, наведите на нее мышь.

Затем щелкните, чтобы увидеть метеонаблюдения и метеопрогнозы.

Управление картой: чтобы увеличить масштаб, щелкните зеленые кнопки с черным крестиком; чтобы уменьшить масштаб, щелкните зеленую кнопку с тире; для просмотра соседних карт щелкайте зеленые стрелки.


METAR-TAF: